createdAt,value
2019-04-29T00:01:01.642Z,6.03
2019-04-29T00:03:32.639Z,5.90
2019-04-29T00:06:10.691Z,5.83
2019-04-29T00:08:41.365Z,5.93
2019-04-29T00:11:12.565Z,5.90
2019-04-29T00:13:43.721Z,6.30
2019-04-29T00:16:39.572Z,5.70
2019-04-29T00:19:28.065Z,6.40
2019-04-29T00:22:00.228Z,6.43
2019-04-29T00:24:30.818Z,6.47
2019-04-29T00:27:01.521Z,6.60
2019-04-29T00:29:32.226Z,6.70
2019-04-29T00:32:02.804Z,6.43
2019-04-29T00:34:34.735Z,6.47
2019-04-29T00:37:36.468Z,6.43
2019-04-29T00:40:20.254Z,7.00
2019-04-29T00:43:08.614Z,6.70
2019-04-29T00:45:39.364Z,6.93
2019-04-29T00:48:09.895Z,6.60
2019-04-29T00:50:40.388Z,6.97
2019-04-29T00:53:11.084Z,6.87
2019-04-29T00:55:41.683Z,6.80
2019-04-29T00:58:13.522Z,6.83
2019-04-29T01:00:45.660Z,6.53
2019-04-29T01:03:17.938Z,6.20
2019-04-29T01:05:48.572Z,6.23
2019-04-29T01:08:19.105Z,6.53
2019-04-29T01:10:49.738Z,6.40
2019-04-29T01:13:20.364Z,5.90
2019-04-29T01:15:51.900Z,5.90
2019-04-29T01:18:22.558Z,6.43
2019-04-29T01:20:53.289Z,6.00
2019-04-29T01:23:24.031Z,6.67
2019-04-29T01:25:58.901Z,6.50
2019-04-29T01:28:35.738Z,6.60
2019-04-29T01:31:14.632Z,6.13
2019-04-29T01:33:46.480Z,6.93
2019-04-29T01:36:35.074Z,6.60
2019-04-29T01:39:09.531Z,6.50
2019-04-29T01:42:02.426Z,6.70
2019-04-29T01:44:35.355Z,7.23
2019-04-29T01:47:06.405Z,7.23
2019-04-29T01:49:37.065Z,7.37
2019-04-29T01:52:09.783Z,6.77
2019-04-29T01:54:42.016Z,7.53
2019-04-29T01:57:13.123Z,7.20
2019-04-29T01:59:45.212Z,6.97
2019-04-29T02:02:16.463Z,7.30
2019-04-29T02:04:47.313Z,7.40
2019-04-29T02:07:17.983Z,7.70
2019-04-29T02:09:59.191Z,8.10
2019-04-29T02:12:30.853Z,8.13
2019-04-29T02:15:01.659Z,8.57
2019-04-29T02:17:35.436Z,8.63
2019-04-29T02:20:06.655Z,8.63
2019-04-29T02:23:14.699Z,8.40
2019-04-29T02:25:52.149Z,8.37
2019-04-29T02:28:51.383Z,8.40
2019-04-29T02:31:44.970Z,9.70
2019-04-29T02:34:47.122Z,10.30
2019-04-29T02:40:42.315Z,9.53
2019-04-29T02:47:33.878Z,10.73
2019-04-29T05:52:50.675Z,25.33
2019-04-29T05:55:21.362Z,24.10
2019-04-29T05:58:11.151Z,24.77
2019-04-29T06:00:45.659Z,24.10
2019-04-29T06:03:16.530Z,23.70
2019-04-29T06:05:46.970Z,22.93
2019-04-29T06:08:17.397Z,22.30
2019-04-29T06:10:49.067Z,20.73
2019-04-29T06:13:19.664Z,22.47
2019-04-29T06:15:50.236Z,19.90
2019-04-29T06:18:22.222Z,20.53
2019-04-29T06:20:53.224Z,19.87
2019-04-29T06:23:24.486Z,20.00
2019-04-29T06:25:55.008Z,20.37
2019-04-29T06:28:26.533Z,18.47
2019-04-29T06:30:57.598Z,19.07
2019-04-29T06:33:29.064Z,18.23
2019-04-29T06:36:03.609Z,16.70
2019-04-29T06:38:34.101Z,16.97
2019-04-29T06:41:09.826Z,17.00
2019-04-29T06:43:38.427Z,16.10
2019-04-29T06:46:11.497Z,15.83
2019-04-29T06:48:41.905Z,14.87
2019-04-29T06:51:13.626Z,14.23
2019-04-29T06:53:44.062Z,16.73
2019-04-29T06:56:15.463Z,14.40
2019-04-29T06:58:48.866Z,13.23
2019-04-29T07:01:17.957Z,11.07
2019-04-29T07:03:48.383Z,13.20
2019-04-29T07:06:18.786Z,15.70
2019-04-29T07:08:49.429Z,13.77
2019-04-29T07:11:21.537Z,14.23
2019-04-29T07:13:57.689Z,15.77
2019-04-29T07:16:31.867Z,16.60
2019-04-29T07:19:00.326Z,18.23
2019-04-29T07:21:31.474Z,19.87
2019-04-29T07:24:01.894Z,20.97
2019-04-29T07:26:33.468Z,20.70
2019-04-29T07:29:04.010Z,22.30
2019-04-29T07:31:35.214Z,22.47
2019-04-29T07:34:08.407Z,23.57
2019-04-29T07:36:38.257Z,25.13
2019-04-29T07:39:08.717Z,25.13
2019-04-29T07:41:41.041Z,25.40
2019-04-29T07:44:13.594Z,26.70
2019-04-29T07:46:57.040Z,27.77
2019-04-29T07:49:22.710Z,26.13
2019-04-29T07:51:53.165Z,26.30
2019-04-29T07:54:23.602Z,27.90
2019-04-29T07:56:54.011Z,26.93
2019-04-29T07:59:24.798Z,27.47
2019-04-29T08:01:59.506Z,24.93
2019-04-29T08:04:28.194Z,24.43
2019-04-29T08:07:00.378Z,22.20
2019-04-29T08:09:31.376Z,24.80
2019-04-29T08:12:02.066Z,24.53
2019-04-29T08:14:33.538Z,26.07
2019-04-29T08:17:04.006Z,23.57
2019-04-29T08:19:36.207Z,24.40
2019-04-29T08:22:06.627Z,27.33
2019-04-29T08:24:46.030Z,25.30
2019-04-29T08:27:39.515Z,25.80
2019-04-29T08:30:11.208Z,25.77
2019-04-29T08:32:44.037Z,24.30
2019-04-29T08:35:16.001Z,25.27
2019-04-29T08:37:46.794Z,24.40
2019-04-29T08:40:23.262Z,24.37
2019-04-29T08:42:59.858Z,23.53
2019-04-29T08:45:44.193Z,23.50
2019-04-29T08:48:18.674Z,24.83
2019-04-29T08:50:49.307Z,23.90
2019-04-29T08:53:22.145Z,24.57
2019-04-29T08:55:53.443Z,23.77
2019-04-29T08:58:24.249Z,24.83
2019-04-29T09:00:55.846Z,25.13
2019-04-29T09:03:39.596Z,27.20
2019-04-29T09:06:05.761Z,23.80
2019-04-29T09:08:34.599Z,22.67
2019-04-29T09:11:08.259Z,23.33
2019-04-29T09:13:39.560Z,25.23
2019-04-29T09:16:10.743Z,24.23
2019-04-29T09:18:41.578Z,25.30
2019-04-29T09:21:12.327Z,23.30
2019-04-29T09:23:42.919Z,26.87
2019-04-29T09:26:26.619Z,25.87
2019-04-29T09:29:27.684Z,27.40
2019-04-29T09:31:58.235Z,26.00
2019-04-29T09:34:28.933Z,26.50
2019-04-29T09:37:00.571Z,25.43
2019-04-29T09:39:42.915Z,27.20
2019-04-29T09:42:24.217Z,27.60
2019-04-29T09:45:06.676Z,25.97
2019-04-29T09:47:37.451Z,26.37
2019-04-29T09:50:08.377Z,27.87
2019-04-29T09:52:38.854Z,26.87
2019-04-29T09:55:09.619Z,26.80
2019-04-29T09:57:40.095Z,25.70
2019-04-29T10:00:18.941Z,27.43
2019-04-29T10:02:54.426Z,26.40
2019-04-29T10:05:42.501Z,25.57
2019-04-29T10:08:12.979Z,26.47
2019-04-29T10:10:44.512Z,27.07
2019-04-29T10:13:15.694Z,25.90
2019-04-29T10:16:02.077Z,28.63
2019-04-29T10:18:38.858Z,25.40
2019-04-29T10:21:11.559Z,24.33
2019-04-29T10:23:42.299Z,23.57
2019-04-29T10:26:13.066Z,25.87
2019-04-29T10:28:57.487Z,23.33
2019-04-29T10:31:28.042Z,22.60
2019-04-29T10:33:58.662Z,22.40
2019-04-29T10:36:30.441Z,21.27
2019-04-29T10:39:08.783Z,20.10
2019-04-29T10:41:41.778Z,20.30
2019-04-29T10:44:24.561Z,20.93
2019-04-29T10:47:03.297Z,19.93
2019-04-29T10:50:02.280Z,18.73
2019-04-29T10:52:38.593Z,19.30
2019-04-29T10:55:09.301Z,19.47
2019-04-29T10:57:40.125Z,20.07
2019-04-29T11:00:25.160Z,21.03
2019-04-29T11:02:57.599Z,20.27
2019-04-29T11:05:30.755Z,19.57
2019-04-29T11:08:19.130Z,19.10
2019-04-29T11:10:51.317Z,19.73
2019-04-29T11:13:23.727Z,18.70
2019-04-29T11:15:54.314Z,20.90
2019-04-29T11:18:25.116Z,18.83
2019-04-29T11:20:55.886Z,20.30
2019-04-29T11:23:39.404Z,18.43
2019-04-29T11:26:28.620Z,19.30
2019-04-29T11:28:59.975Z,19.17
2019-04-29T11:31:30.680Z,19.57
2019-04-29T11:34:24.799Z,19.63
2019-04-29T11:36:55.563Z,17.63
2019-04-29T11:39:26.951Z,16.83
2019-04-29T11:41:59.788Z,17.10
2019-04-29T11:44:31.995Z,16.87
2019-04-29T11:47:02.772Z,18.00
2019-04-29T11:49:42.493Z,17.93
2019-04-29T11:52:13.073Z,15.63
2019-04-29T11:54:43.694Z,16.77
2019-04-29T11:57:23.431Z,15.60
2019-04-29T12:00:06.055Z,14.97
2019-04-29T12:02:46.126Z,17.02
2019-04-29T12:05:23.675Z,14.93
2019-04-29T12:07:54.502Z,15.83
2019-04-29T12:10:27.125Z,14.57
2019-04-29T12:12:59.391Z,14.10
2019-04-29T12:15:49.242Z,14.07
2019-04-29T12:18:28.317Z,14.10
2019-04-29T12:21:17.518Z,14.80
2019-04-29T12:23:52.060Z,14.07
2019-04-29T12:26:20.782Z,13.83
2019-04-29T12:28:51.326Z,14.40
2019-04-29T12:31:31.190Z,12.87
2019-04-29T12:34:30.241Z,13.03
2019-04-29T12:37:01.591Z,13.20
2019-04-29T12:39:50.602Z,14.20
2019-04-29T12:42:54.966Z,13.55
2019-04-29T12:45:30.974Z,12.77
2019-04-29T12:48:02.156Z,13.43
2019-04-29T12:50:32.651Z,12.80
2019-04-29T12:53:03.875Z,13.68
2019-04-29T12:55:44.940Z,12.00
2019-04-29T12:58:11.399Z,12.58
2019-04-29T13:00:48.964Z,12.15
2019-04-29T13:03:30.837Z,12.30
2019-04-29T13:06:23.892Z,11.90
2019-04-29T13:08:55.824Z,11.80
2019-04-29T13:11:37.464Z,11.05
2019-04-29T13:14:01.762Z,11.22
2019-04-29T13:17:13.620Z,10.72
2019-04-29T13:20:02.121Z,11.88
2019-04-29T13:22:33.118Z,10.58
2019-04-29T13:25:04.118Z,10.70
2019-04-29T13:27:35.640Z,11.35
2019-04-29T13:30:14.886Z,10.85
2019-04-29T13:32:42.557Z,10.60
2019-04-29T13:35:13.768Z,10.48
2019-04-29T13:37:54.443Z,10.95
2019-04-29T13:40:25.037Z,11.20
2019-04-29T13:42:56.558Z,10.43
2019-04-29T13:45:34.482Z,9.45
2019-04-29T13:48:18.440Z,10.55
2019-04-29T13:51:04.786Z,10.18
2019-04-29T13:53:39.597Z,10.35
2019-04-29T13:56:18.186Z,9.33
2019-04-29T13:58:43.351Z,10.45
2019-04-29T14:01:27.653Z,9.88
2019-04-29T14:04:01.393Z,9.35
2019-04-29T14:06:34.554Z,9.18
2019-04-29T14:09:07.735Z,9.08
2019-04-29T14:11:38.556Z,9.43
2019-04-29T14:14:09.239Z,8.90
2019-04-29T14:16:43.156Z,8.33
2019-04-29T14:19:12.527Z,8.35
2019-04-29T14:21:43.686Z,8.33
2019-04-29T14:24:14.137Z,9.05
2019-04-29T14:26:47.729Z,8.55
2019-04-29T14:29:30.258Z,7.97
2019-04-29T14:32:01.295Z,8.00
2019-04-29T14:35:11.754Z,8.05
2019-04-29T14:41:55.327Z,7.00
2019-04-29T14:44:42.523Z,7.58
2019-04-29T14:47:22.767Z,7.20
2019-04-29T14:49:58.309Z,7.03
2019-04-29T14:52:29.251Z,7.10
2019-04-29T14:55:41.017Z,7.17
2019-04-29T14:58:15.322Z,6.30
2019-04-29T15:01:47.546Z,6.37
2019-04-29T15:04:35.903Z,6.33
2019-04-29T15:07:06.762Z,5.75
2019-04-29T15:09:55.946Z,6.20
2019-04-29T15:12:33.567Z,6.30
2019-04-29T15:15:49.158Z,6.17
2019-04-29T15:18:47.256Z,5.90
2019-04-29T15:21:31.995Z,5.90
2019-04-29T15:23:51.394Z,5.80
2019-04-29T15:26:21.966Z,5.95
2019-04-29T15:28:54.285Z,5.90
2019-04-29T15:31:51.055Z,6.05
2019-04-29T15:34:28.488Z,5.95
2019-04-29T15:36:58.837Z,5.58
2019-04-29T15:39:51.164Z,5.40
2019-04-29T15:42:23.843Z,6.20
2019-04-29T15:45:03.136Z,5.15
2019-04-29T15:47:45.221Z,5.75
2019-04-29T15:50:22.435Z,5.75
2019-04-29T15:52:53.197Z,5.90
2019-04-29T15:55:26.376Z,5.42
2019-04-29T15:57:57.590Z,5.55
2019-04-29T16:00:37.352Z,5.42
2019-04-29T16:03:07.501Z,5.00
2019-04-29T16:06:19.292Z,4.85
2019-04-29T16:08:38.178Z,5.12
2019-04-29T16:11:37.972Z,4.35
2019-04-29T16:14:12.070Z,4.67
2019-04-29T16:16:42.523Z,4.47
2019-04-29T16:19:12.892Z,4.22
2019-04-29T16:21:43.391Z,4.10
2019-04-29T16:24:26.482Z,4.20
2019-04-29T16:26:46.105Z,4.20
2019-04-29T16:29:16.762Z,4.50
2019-04-29T16:31:47.197Z,4.37
2019-04-29T16:34:17.658Z,5.00
2019-04-29T16:36:50.172Z,4.20
2019-04-29T16:39:20.567Z,4.17
2019-04-29T16:42:01.941Z,4.58
2019-04-29T16:44:36.228Z,4.20
2019-04-29T16:47:07.523Z,4.33
2019-04-29T16:49:38.883Z,3.95
2019-04-29T16:52:18.790Z,4.50
2019-04-29T16:54:49.307Z,4.12
2019-04-29T16:57:19.906Z,4.25
2019-04-29T16:59:50.416Z,4.10
2019-04-29T17:02:21.362Z,4.20
2019-04-29T17:04:51.976Z,4.10
2019-04-29T17:07:35.137Z,4.05
2019-04-29T17:10:27.179Z,3.90
2019-04-29T17:12:57.790Z,4.00
2019-04-29T17:15:29.041Z,4.15
2019-04-29T17:17:59.462Z,4.00
2019-04-29T17:20:32.829Z,4.85
2019-04-29T17:23:03.285Z,3.87
2019-04-29T17:25:33.945Z,3.97
2019-04-29T17:28:29.023Z,3.73
2019-04-29T17:31:12.536Z,3.85
2019-04-29T17:33:49.846Z,4.20
2019-04-29T17:36:32.654Z,3.97
2019-04-29T17:39:04.881Z,3.50
2019-04-29T17:41:35.437Z,4.07
2019-04-29T17:44:38.730Z,3.50
2019-04-29T20:15:32.634Z,3.33
2019-04-29T20:18:58.352Z,3.50
2019-04-29T20:25:00.713Z,3.10
2019-04-29T20:31:48.300Z,3.50
2019-04-29T20:35:18.269Z,3.10
2019-04-29T20:41:47.038Z,3.20
2019-04-29T20:45:05.383Z,3.80
2019-04-29T20:48:42.533Z,3.83
2019-04-29T20:54:26.274Z,3.23
2019-04-29T21:00:30.796Z,3.50
2019-04-29T21:03:40.971Z,3.53
